Terminal Aerodrome Forecast
Issued by NWS Cleveland, OH

Home | Current Version | Previous Version | Graphics & Text | Print | Product List | Glossary On
Versions: 1 2 3 4 5 6 7 8 9 10 11 12 13 14 15 16 17 18 19 20 21
000
FTUS41 KCLE 282300 RRA
TAFYNG
TAF
KYNG 282342Z 2900/2924 13004KT P6SM SCT120 OVC250
     FM290800 13006KT P6SM OVC120
     FM291300 15008KT P6SM OVC080
     FM291500 16011KT P6SM VCSH OVC045
      TEMPO 2916/2918 6SM -RASN BR OVC025
     FM291800 19014G20KT 2SM -RA BR OVC007
     FM292000 20011KT 1 1/2SM -SN BR OVC007
     FM292300 25013KT 2SM -SN BR OVC007=

USA.gov is the U.S. government's official web portal to all federal, state and local government web resources and services.